Time;durP1;ratioP1;P1;durP2;ratioP2;P2;SDS_P1;SDS_P2;PMS_P1;PMS_P2;Temp;Humidity;BMP_temperature;BMP_pressure;BME280_temperature;BME280_humidity;BME280_pressure;Samples;Min_cycle;Max_cycle;Signal;HPM_P1;HPM_P2
2022/01/30 00:02:13;;;;;;;26.45;9.73;;;;;;;5.34;76.22;102590.56;5053915;28;20482;-52
2022/01/30 00:04:38;;;;;;;27.52;10.52;;;;;;;5.35;75.73;102597.75;5053677;28;20029;-52
2022/01/30 00:07:04;;;;;;;26.38;9.75;;;;;;;5.27;76.21;102593.38;5053218;28;20055;-52
2022/01/30 00:09:29;;;;;;;29.23;10.38;;;;;;;5.31;75.65;102604.75;5052812;28;20029;-52
2022/01/30 00:11:59;;;;;;;25.80;9.50;;;;;;;5.30;75.58;102598.44;5052920;28;20103;-50
2022/01/30 00:14:27;;;;;;;26.35;10.05;;;;;;;5.23;75.94;102605.91;5053279;28;20535;-52
2022/01/30 00:17:00;;;;;;;26.27;9.73;;;;;;;5.25;75.74;102586.44;5053712;28;20115;-51
2022/01/30 00:19:35;;;;;;;29.65;9.95;;;;;;;5.22;75.56;102592.38;5053922;28;20108;-52
2022/01/30 00:22:18;;;;;;;25.27;9.32;;;;;;;5.20;76.17;102595.38;5053628;28;20029;-52
2022/01/30 00:24:56;;;;;;;31.45;9.98;;;;;;;5.23;75.88;102603.16;5051374;28;20448;-54
2022/01/30 00:27:31;;;;;;;26.75;9.80;;;;;;;5.21;76.02;102602.53;5053670;28;20040;-54
2022/01/30 00:29:57;;;;;;;31.80;10.40;;;;;;;5.17;75.94;102608.69;5053079;28;20040;-53
2022/01/30 00:32:23;;;;;;;29.90;10.23;;;;;;;5.17;76.05;102606.78;5053246;28;20060;-52
2022/01/30 00:34:48;;;;;;;29.42;9.70;;;;;;;5.14;76.32;102610.81;5052219;28;20048;-52
2022/01/30 00:37:15;;;;;;;28.02;10.02;;;;;;;5.11;76.25;102605.78;5051044;28;20025;-51
2022/01/30 00:39:40;;;;;;;30.75;9.63;;;;;;;5.10;76.16;102598.59;5052995;28;20379;-52
2022/01/30 00:42:06;;;;;;;27.92;9.77;;;;;;;5.08;76.36;102609.00;5053174;28;20025;-49
2022/01/30 00:44:31;;;;;;;25.33;8.93;;;;;;;5.09;76.58;102605.19;5052770;28;20029;-49
2022/01/30 00:46:58;;;;;;;27.85;9.43;;;;;;;5.03;76.91;102611.56;5052870;28;20075;-52
2022/01/30 00:49:23;;;;;;;28.23;10.77;;;;;;;5.00;76.82;102612.84;5052964;28;20464;-52
2022/01/30 00:51:49;;;;;;;27.00;9.63;;;;;;;4.96;77.11;102619.84;5052639;28;20057;-51
2022/01/30 00:54:14;;;;;;;29.33;11.10;;;;;;;4.92;77.10;102615.88;5053241;28;20060;-50
2022/01/30 00:56:39;;;;;;;26.98;9.35;;;;;;;4.95;77.18;102620.94;5052345;28;20472;-53
2022/01/30 00:59:05;;;;;;;27.90;9.85;;;;;;;5.00;77.17;102621.09;5052284;28;20017;-50
2022/01/30 01:01:32;;;;;;;28.75;10.05;;;;;;;4.94;77.15;102630.22;5052197;28;20277;-52
2022/01/30 01:03:57;;;;;;;29.90;10.23;;;;;;;4.90;77.01;102622.66;5051998;28;20033;-53
2022/01/30 01:06:22;;;;;;;26.13;9.05;;;;;;;4.88;77.43;102617.38;5052590;28;20091;-50
2022/01/30 01:08:51;;;;;;;30.73;11.45;;;;;;;4.88;77.02;102608.31;5052745;28;20045;-51
2022/01/30 01:24:30;;;;;;;31.08;10.38;;;;;;;4.75;78.34;102625.72;5052434;28;20118;-51
2022/01/30 01:26:55;;;;;;;31.15;9.90;;;;;;;4.76;77.88;102633.72;5053024;28;20068;-53
2022/01/30 01:29:21;;;;;;;24.55;9.63;;;;;;;4.72;78.39;102634.41;5052491;28;20040;-52
2022/01/30 01:31:46;;;;;;;28.20;10.80;;;;;;;4.69;78.11;102631.03;5052443;28;20036;-50
2022/01/30 01:34:30;;;;;;;26.33;10.02;;;;;;;4.65;78.56;102646.25;5052411;28;20047;-51
2022/01/30 01:36:55;;;;;;;25.95;9.38;;;;;;;4.63;78.63;102637.41;5052662;28;20029;-50
2022/01/30 01:39:20;;;;;;;23.75;9.27;;;;;;;4.63;78.80;102642.06;5052421;28;20025;-49
2022/01/30 01:41:46;;;;;;;28.95;10.13;;;;;;;4.63;78.01;102642.91;5052498;28;20033;-52
2022/01/30 01:44:16;;;;;;;32.80;10.52;;;;;;;4.63;78.15;102633.84;5053157;28;20025;-52
2022/01/30 01:46:42;;;;;;;27.15;9.48;;;;;;;4.61;78.25;102644.19;5052090;28;20025;-54
2022/01/30 01:49:10;;;;;;;26.02;10.02;;;;;;;4.61;77.92;102650.50;5055364;28;20036;-54
2022/01/30 01:51:36;;;;;;;29.60;10.75;;;;;;;4.56;78.45;102649.47;5055059;28;20025;-54
2022/01/30 01:54:01;;;;;;;27.45;10.10;;;;;;;4.53;78.51;102653.50;5056205;28;20140;-56
2022/01/30 01:56:27;;;;;;;27.63;9.45;;;;;;;4.48;78.79;102653.34;5056657;28;20033;-54
2022/01/30 01:58:53;;;;;;;27.42;9.80;;;;;;;4.51;78.41;102655.63;5055651;28;20025;-51
2022/01/30 02:01:18;;;;;;;29.23;9.20;;;;;;;4.48;78.52;102645.94;5055960;28;20036;-54
2022/01/30 02:03:44;;;;;;;23.23;9.40;;;;;;;4.42;78.53;102640.50;5053931;28;20348;-55
2022/01/30 02:06:13;;;;;;;27.10;9.70;;;;;;;4.40;78.92;102642.59;5056437;28;20108;-54
2022/01/30 02:08:43;;;;;;;27.33;9.60;;;;;;;4.37;78.43;102636.53;5055946;28;20405;-54
2022/01/30 02:11:16;;;;;;;28.50;9.48;;;;;;;4.32;78.60;102630.84;5055836;28;20052;-54
2022/01/30 02:24:39;;;;;;;25.08;10.10;;;;;;;4.19;79.84;102639.16;5055704;28;20095;-52
2022/01/30 02:27:05;;;;;;;27.42;10.07;;;;;;;4.13;80.25;102645.50;5055905;28;20033;-54
2022/01/30 02:29:31;;;;;;;24.48;9.45;;;;;;;4.10;80.04;102640.47;5055676;28;20494;-51
2022/01/30 02:31:59;;;;;;;28.42;9.85;;;;;;;4.17;80.00;102649.50;5055615;28;20037;-54
2022/01/30 02:34:27;;;;;;;27.27;10.10;;;;;;;4.16;79.87;102647.81;5054973;28;20395;-54
2022/01/30 02:36:52;;;;;;;28.35;9.75;;;;;;;4.19;79.87;102641.91;5055596;28;20025;-54
2022/01/30 02:39:19;;;;;;;27.10;9.55;;;;;;;4.16;79.57;102640.44;5055639;28;20025;-55
2022/01/30 02:41:45;;;;;;;27.85;10.27;;;;;;;4.17;79.96;102633.88;5055299;28;20100;-55
2022/01/30 02:46:47;;;;;;;24.17;9.18;;;;;;;4.20;79.82;102625.25;5055506;28;20415;-54
2022/01/30 02:51:56;;;;;;;30.73;9.45;;;;;;;4.16;80.52;102624.00;5054573;28;20036;-52
2022/01/30 02:54:22;;;;;;;27.85;9.70;;;;;;;4.13;80.31;102624.44;5054660;28;20394;-54
2022/01/30 02:56:47;;;;;;;28.30;9.02;;;;;;;4.12;80.79;102641.06;5054937;28;20025;-54
2022/01/30 02:59:13;;;;;;;28.45;9.85;;;;;;;4.09;80.85;102641.53;5052760;28;20033;-55
2022/01/30 03:01:39;;;;;;;28.15;10.43;;;;;;;4.04;80.67;102645.75;5054214;28;20025;-55
2022/01/30 03:04:05;;;;;;;27.75;9.30;;;;;;;4.05;80.33;102661.13;5054268;28;20024;-55
2022/01/30 03:06:31;;;;;;;25.83;9.60;;;;;;;4.12;79.75;102655.63;5054635;28;20036;-54
2022/01/30 03:08:57;;;;;;;26.15;8.93;;;;;;;4.09;80.34;102664.28;5054962;28;20025;-51
2022/01/30 03:11:23;;;;;;;31.20;10.63;;;;;;;4.02;80.69;102664.31;5053903;28;20029;-51
2022/01/30 03:13:48;;;;;;;27.00;10.15;;;;;;;4.05;80.74;102661.13;5054413;28;20033;-50
2022/01/30 03:16:13;;;;;;;26.33;9.68;;;;;;;4.02;80.31;102664.31;5053844;28;20124;-50
2022/01/30 03:18:40;;;;;;;27.70;9.40;;;;;;;4.02;80.35;102674.44;5052371;28;20032;-51
2022/01/30 03:21:06;;;;;;;29.63;9.70;;;;;;;4.03;80.45;102668.72;5054071;28;20134;-50
2022/01/30 03:23:36;;;;;;;30.20;9.52;;;;;;;4.01;80.93;102678.22;5053686;28;20503;-52
2022/01/30 03:26:01;;;;;;;28.35;9.45;;;;;;;4.03;80.38;102682.41;5054403;28;20464;-51
2022/01/30 03:28:27;;;;;;;25.52;9.88;;;;;;;4.13;79.79;102687.44;5054044;28;20032;-50
2022/01/30 03:30:57;;;;;;;28.45;10.77;;;;;;;4.19;79.66;102688.47;5053875;28;20448;-51
2022/01/30 03:33:23;;;;;;;27.10;9.35;;;;;;;4.27;79.60;102698.31;5053772;28;20028;-49
2022/01/30 03:35:48;;;;;;;27.00;9.23;;;;;;;4.31;79.51;102699.59;5053883;28;20021;-50
2022/01/30 03:38:19;;;;;;;28.58;8.98;;;;;;;4.32;79.26;102702.09;5054299;28;20029;-50
2022/01/30 03:40:44;;;;;;;21.27;8.85;;;;;;;4.31;79.66;102711.38;5054496;28;20025;-51
2022/01/30 03:43:09;;;;;;;23.42;9.02;;;;;;;4.27;79.65;102726.59;5053993;28;20057;-50
2022/01/30 03:45:35;;;;;;;28.08;9.48;;;;;;;4.20;79.40;102734.81;5054120;28;20025;-53
2022/01/30 03:48:01;;;;;;;24.35;9.13;;;;;;;4.15;79.36;102729.16;5053919;28;20047;-53
2022/01/30 03:50:26;;;;;;;27.30;9.20;;;;;;;4.14;79.27;102726.63;5053837;28;20419;-52
2022/01/30 03:52:54;;;;;;;27.95;9.75;;;;;;;4.12;79.22;102729.59;5053403;28;20078;-52
2022/01/30 03:55:20;;;;;;;26.90;8.77;;;;;;;4.10;79.18;102741.81;5054471;28;20116;-52
2022/01/30 03:57:46;;;;;;;24.95;9.57;;;;;;;4.09;78.81;102740.97;5053709;28;20110;-53
2022/01/30 04:00:11;;;;;;;27.08;8.95;;;;;;;4.05;78.31;102743.31;5053620;28;20447;-52
2022/01/30 04:02:37;;;;;;;26.08;8.95;;;;;;;4.08;78.21;102743.94;5053022;28;20025;-50
2022/01/30 04:05:02;;;;;;;19.65;7.93;;;;;;;4.07;77.83;102745.81;5053133;28;20025;-50
2022/01/30 04:07:31;;;;;;;23.35;8.57;;;;;;;4.12;77.31;102754.25;5052949;28;20391;-49
2022/01/30 04:09:56;;;;;;;22.27;9.10;;;;;;;4.12;77.01;102756.13;5052956;28;20032;-50
2022/01/30 04:12:22;;;;;;;23.17;8.05;;;;;;;4.12;77.10;102756.13;5052270;28;20024;-50
2022/01/30 04:14:47;;;;;;;19.58;8.00;;;;;;;4.14;76.00;102752.13;5053845;28;20052;-50
2022/01/30 04:17:13;;;;;;;21.10;8.07;;;;;;;4.12;76.45;102754.25;5053540;28;20025;-51
2022/01/30 04:19:39;;;;;;;25.20;8.70;;;;;;;4.14;76.07;102762.22;5053362;28;20040;-49
2022/01/30 04:22:05;;;;;;;25.58;7.90;;;;;;;4.11;75.83;102752.56;5053058;28;20021;-49
2022/01/30 04:24:31;;;;;;;21.95;7.90;;;;;;;4.11;75.90;102757.22;5053454;28;20024;-51
2022/01/30 04:26:56;;;;;;;20.92;7.78;;;;;;;4.11;75.05;102762.69;5053306;28;20066;-50
2022/01/30 04:29:22;;;;;;;22.08;7.93;;;;;;;4.17;74.73;102762.66;5053380;28;20025;-52
2022/01/30 04:31:50;;;;;;;19.40;8.02;;;;;;;4.10;74.83;102750.88;5053097;28;20029;-54
2022/01/30 04:34:16;;;;;;;23.77;8.57;;;;;;;4.06;75.23;102752.38;5052650;28;20036;-51
2022/01/30 04:36:56;;;;;;;21.85;9.02;;;;;;;4.03;75.25;102755.53;5052506;28;20096;-50
2022/01/30 04:52:00;;;;;;;;;;;;;;;3.97;75.88;102756.41;5053893;28;20044;-51
2022/01/30 04:53:37;;;;;;;21.80;7.82;;;;;;;3.78;76.54;102755.38;5052565;28;20424;-50
2022/01/30 04:58:54;;;;;;;18.25;7.50;;;;;;;3.71;77.23;102769.06;5052404;28;20110;-49
2022/01/30 05:01:38;;;;;;;21.17;8.13;;;;;;;3.70;76.92;102772.84;5052767;28;20373;-49
2022/01/30 05:04:22;;;;;;;24.90;8.10;;;;;;;3.64;76.86;102773.72;5052296;28;20040;-50
2022/01/30 05:09:26;;;;;;;19.45;7.47;;;;;;;3.59;76.78;102782.56;5052756;28;20037;-51
2022/01/30 05:11:53;;;;;;;19.38;7.57;;;;;;;3.58;77.68;102783.59;5052798;28;20056;-51
2022/01/30 05:14:21;;;;;;;21.52;7.65;;;;;;;3.54;77.58;102790.56;5052735;28;20502;-52
2022/01/30 05:16:47;;;;;;;15.70;7.00;;;;;;;3.54;77.02;102788.66;5052137;28;20399;-51
2022/01/30 05:19:13;;;;;;;18.35;7.28;;;;;;;3.55;76.54;102790.34;5052853;28;20025;-51
2022/01/30 05:21:38;;;;;;;20.92;7.43;;;;;;;3.58;76.19;102783.59;5052074;28;20083;-50
2022/01/30 05:24:04;;;;;;;19.02;8.15;;;;;;;3.56;75.63;102791.19;5056182;28;20040;-50
2022/01/30 05:26:31;;;;;;;21.05;7.80;;;;;;;3.53;76.22;102788.88;5056199;28;20021;-53
2022/01/30 05:28:57;;;;;;;20.05;8.07;;;;;;;3.52;75.68;102800.88;5056850;28;20025;-53
2022/01/30 05:31:22;;;;;;;18.63;7.88;;;;;;;3.47;77.01;102795.19;5055268;28;20067;-53
2022/01/30 05:33:48;;;;;;;20.65;7.78;;;;;;;3.43;76.61;102797.50;5055425;28;20037;-53
2022/01/30 05:36:13;;;;;;;21.15;7.40;;;;;;;3.46;76.83;102796.22;5056397;28;20017;-52
2022/01/30 05:38:39;;;;;;;18.92;7.38;;;;;;;3.45;76.44;102800.03;5055985;28;20480;-53
2022/01/30 05:41:04;;;;;;;24.90;8.10;;;;;;;3.46;77.30;102804.44;5056463;28;20028;-54
2022/01/30 05:43:32;;;;;;;20.48;7.28;;;;;;;3.43;77.06;102794.75;5056433;28;20094;-54
2022/01/30 05:46:28;;;;;;;23.08;7.13;;;;;;;3.39;77.40;102813.50;5056787;28;20508;-51
2022/01/30 05:48:43;;;;;;;21.60;7.57;;;;;;;3.37;77.45;102801.09;5055942;28;20060;-53
2022/01/30 05:51:09;;;;;;;19.25;6.90;;;;;;;3.35;78.12;102806.78;5056501;28;20515;-53
2022/01/30 05:53:34;;;;;;;21.52;7.35;;;;;;;3.36;77.34;102800.22;5054543;28;20499;-52
2022/01/30 05:55:59;;;;;;;22.98;8.27;;;;;;;3.35;77.71;102805.91;5056163;28;20053;-51
2022/01/30 05:58:25;;;;;;;22.50;7.75;;;;;;;3.33;77.93;102810.75;5056421;28;20083;-53
2022/01/30 06:00:50;;;;;;;22.98;8.32;;;;;;;3.36;77.27;102810.34;5056005;28;20120;-51
2022/01/30 06:03:16;;;;;;;22.08;7.10;;;;;;;3.30;77.61;102825.69;5055474;28;20036;-51
2022/01/30 06:05:41;;;;;;;20.55;7.05;;;;;;;3.27;77.69;102815.16;5055986;28;20115;-51
2022/01/30 06:08:13;;;;;;;18.33;7.10;;;;;;;3.27;77.48;102826.09;5055475;28;20052;-53
2022/01/30 06:10:38;;;;;;;20.10;7.68;;;;;;;3.24;78.72;102826.53;5055513;28;20071;-54
2022/01/30 06:13:03;;;;;;;22.73;7.28;;;;;;;3.24;78.29;102827.38;5055886;28;20064;-51
2022/01/30 06:15:29;;;;;;;23.10;8.18;;;;;;;3.23;77.99;102822.94;5055582;28;20055;-52
2022/01/30 06:17:54;;;;;;;23.02;7.65;;;;;;;3.28;77.98;102823.19;5055530;28;20078;-52
2022/01/30 06:20:19;;;;;;;20.98;7.32;;;;;;;3.33;77.64;102822.56;5055736;28;20513;-51
2022/01/30 06:22:45;;;;;;;21.45;7.38;;;;;;;3.32;77.71;102814.53;5055566;28;20029;-51
2022/01/30 06:25:10;;;;;;;19.88;7.22;;;;;;;3.35;76.99;102819.59;5055451;28;20021;-50
2022/01/30 06:27:36;;;;;;;21.70;7.35;;;;;;;3.33;76.86;102814.34;5055995;28;20036;-53
2022/01/30 06:30:04;;;;;;;20.60;8.15;;;;;;;3.35;76.49;102825.06;5055769;28;20029;-52
2022/01/30 06:32:30;;;;;;;19.40;7.80;;;;;;;3.33;76.33;102825.28;5055833;28;20021;-54
2022/01/30 06:34:55;;;;;;;21.45;7.00;;;;;;;3.40;76.55;102831.59;5054456;28;20027;-54
2022/01/30 06:37:20;;;;;;;21.33;7.47;;;;;;;3.32;77.00;102828.22;5055662;28;20021;-52
2022/01/30 06:39:46;;;;;;;23.92;8.00;;;;;;;3.28;76.81;102836.00;5055603;28;20036;-54
2022/01/30 06:42:11;;;;;;;24.08;8.13;;;;;;;3.24;77.36;102841.03;5055559;28;20057;-51
2022/01/30 06:44:37;;;;;;;23.27;7.88;;;;;;;3.19;77.80;102842.72;5055573;28;20051;-53
2022/01/30 06:47:03;;;;;;;24.08;8.48;;;;;;;3.08;77.90;102831.31;5055692;28;20121;-52
2022/01/30 06:49:28;;;;;;;20.20;7.50;;;;;;;3.07;78.39;102843.31;5055311;28;20029;-54
2022/01/30 06:51:54;;;;;;;21.50;7.65;;;;;;;3.03;78.68;102846.66;5055449;28;20116;-53
2022/01/30 06:54:19;;;;;;;19.00;7.43;;;;;;;2.99;78.92;102854.44;5055437;28;20065;-53
2022/01/30 06:56:44;;;;;;;22.30;7.35;;;;;;;3.03;78.58;102857.59;5055500;28;20438;-54
2022/01/30 06:59:09;;;;;;;21.85;7.78;;;;;;;3.04;78.78;102851.09;5055225;28;20033;-55
2022/01/30 07:01:35;;;;;;;23.50;7.80;;;;;;;3.08;78.06;102860.56;5055461;28;20028;-54
2022/01/30 07:04:00;;;;;;;21.70;7.75;;;;;;;3.10;78.14;102862.06;5055141;28;20530;-55
2022/01/30 07:06:25;;;;;;;21.85;7.57;;;;;;;3.10;78.22;102861.22;5055034;28;20017;-55
2022/01/30 07:08:51;;;;;;;21.67;8.18;;;;;;;3.09;78.52;102867.75;5055024;28;20033;-54
2022/01/30 07:11:16;;;;;;;22.63;7.55;;;;;;;3.08;78.61;102877.00;5054920;28;20025;-54
2022/01/30 07:13:42;;;;;;;24.52;7.75;;;;;;;3.09;79.16;102871.31;5055029;28;20117;-54
2022/01/30 07:16:08;;;;;;;25.13;8.02;;;;;;;3.09;79.38;102879.50;5054076;28;20614;-54
2022/01/30 07:18:33;;;;;;;23.27;8.48;;;;;;;3.04;79.54;102881.16;5054447;28;20060;-54
2022/01/30 07:20:58;;;;;;;22.83;8.05;;;;;;;2.99;79.64;102876.31;5054513;28;20184;-54
2022/01/30 07:23:24;;;;;;;22.98;8.20;;;;;;;2.96;79.75;102879.47;5054801;28;20029;-54
2022/01/30 07:25:49;;;;;;;23.65;8.15;;;;;;;2.95;80.66;102886.81;5054579;28;20063;-55
2022/01/30 07:28:15;;;;;;;24.52;7.93;;;;;;;2.95;80.63;102886.00;5054576;28;20029;-55
2022/01/30 07:30:40;;;;;;;22.17;8.32;;;;;;;2.93;80.03;102888.91;5054519;28;20023;-55
2022/01/30 07:33:05;;;;;;;21.77;7.68;;;;;;;2.97;80.13;102892.09;5054203;28;20495;-53
2022/01/30 07:35:33;;;;;;;26.77;7.80;;;;;;;2.99;79.82;102891.88;5053931;28;20029;-55
2022/01/30 07:37:58;;;;;;;22.35;7.65;;;;;;;3.00;79.79;102899.06;5054230;28;20027;-54
2022/01/30 07:40:24;;;;;;;24.55;8.27;;;;;;;3.02;79.64;102899.69;5054369;28;20032;-55
2022/01/30 07:42:49;;;;;;;24.63;7.28;;;;;;;3.02;79.46;102902.44;5054197;28;20033;-55
2022/01/30 07:45:14;;;;;;;22.95;7.53;;;;;;;3.00;79.57;102907.25;5054121;28;20025;-55
2022/01/30 07:47:40;;;;;;;25.88;7.88;;;;;;;3.08;79.89;102910.63;5054302;28;20032;-54
2022/01/30 07:50:06;;;;;;;24.27;7.90;;;;;;;3.10;79.97;102911.28;5054212;28;20387;-54
2022/01/30 07:52:31;;;;;;;19.38;7.53;;;;;;;3.09;79.74;102912.31;5054071;28;20036;-53
2022/01/30 07:54:56;;;;;;;21.92;7.65;;;;;;;3.12;79.86;102919.28;5055101;28;20091;-55
2022/01/30 07:57:22;;;;;;;20.33;7.05;;;;;;;3.16;78.73;102919.72;5053690;28;20448;-55
2022/01/30 07:59:48;;;;;;;25.63;8.15;;;;;;;3.16;79.12;102917.81;5054126;28;20032;-54
2022/01/30 08:02:13;;;;;;;25.52;7.95;;;;;;;3.21;78.71;102919.94;5053531;28;20384;-54
2022/01/30 08:04:38;;;;;;;24.35;7.70;;;;;;;3.26;77.81;102920.16;5053533;28;20029;-53
2022/01/30 08:07:04;;;;;;;27.02;8.38;;;;;;;3.30;77.35;102926.09;5053819;28;20039;-54
2022/01/30 08:09:29;;;;;;;30.92;8.50;;;;;;;3.30;76.99;102921.44;5053773;28;20081;-54
2022/01/30 08:11:55;;;;;;;25.00;7.88;;;;;;;3.33;77.43;102934.72;5053851;28;20033;-54
2022/01/30 08:14:21;;;;;;;25.13;8.07;;;;;;;3.37;77.16;102929.69;5053471;28;20112;-55
2022/01/30 08:16:46;;;;;;;23.80;7.85;;;;;;;3.46;77.55;102935.78;5053708;28;20040;-54
2022/01/30 08:19:12;;;;;;;23.17;7.82;;;;;;;3.51;76.55;102939.59;5053630;28;20033;-54
2022/01/30 08:21:37;;;;;;;23.98;8.20;;;;;;;3.58;76.54;102932.25;5053510;28;20074;-54
2022/01/30 08:24:03;;;;;;;25.15;7.82;;;;;;;3.63;76.02;102928.91;5053381;28;20029;-55
2022/01/30 08:26:28;;;;;;;28.08;8.43;;;;;;;3.70;76.13;102927.00;5053467;28;20017;-55
2022/01/30 08:28:53;;;;;;;22.75;8.38;;;;;;;3.75;75.79;102932.69;5053576;28;20017;-55
2022/01/30 08:31:18;;;;;;;25.17;7.97;;;;;;;3.79;75.46;102935.84;5053294;28;20059;-54
2022/01/30 08:33:44;;;;;;;25.73;8.07;;;;;;;3.82;75.24;102935.44;5052014;28;20404;-54
2022/01/30 08:36:09;;;;;;;24.48;8.73;;;;;;;3.89;74.16;102935.47;5053150;28;20082;-56
2022/01/30 08:38:34;;;;;;;22.73;8.10;;;;;;;4.02;74.78;102935.44;5053375;28;20023;-54
2022/01/30 08:40:59;;;;;;;29.60;8.57;;;;;;;4.08;74.55;102931.03;5053146;28;20075;-55
2022/01/30 08:43:25;;;;;;;22.15;7.75;;;;;;;4.11;74.33;102944.31;5053043;28;20468;-56
2022/01/30 08:45:52;;;;;;;26.85;8.65;;;;;;;4.16;73.79;102935.47;5053078;28;20356;-55
2022/01/30 08:48:18;;;;;;;26.92;8.43;;;;;;;4.16;74.50;102944.50;5053263;28;20025;-55
2022/01/30 08:50:44;;;;;;;25.67;8.48;;;;;;;4.16;73.50;102940.94;5053065;28;20472;-55
2022/01/30 08:53:10;;;;;;;25.95;8.63;;;;;;;4.15;73.52;102942.84;5053172;28;20041;-56
2022/01/30 08:55:35;;;;;;;25.02;8.05;;;;;;;4.18;73.08;102958.00;5053045;28;20388;-55
2022/01/30 08:58:07;;;;;;;24.52;7.97;;;;;;;4.20;72.54;102959.47;5052281;28;20128;-53
2022/01/30 09:00:37;;;;;;;26.52;8.75;;;;;;;4.28;72.54;102954.84;5053213;28;20094;-51
2022/01/30 09:03:04;;;;;;;22.45;7.85;;;;;;;4.31;73.12;102960.72;5052974;28;20025;-53
2022/01/30 09:05:30;;;;;;;24.83;8.30;;;;;;;4.42;72.26;102962.00;5052838;28;20072;-54
2022/01/30 09:07:56;;;;;;;22.50;7.95;;;;;;;4.39;72.80;102965.16;5052927;28;20056;-53
2022/01/30 09:10:22;;;;;;;26.10;8.23;;;;;;;4.37;72.77;102961.78;5052853;28;20072;-53
2022/01/30 09:12:47;;;;;;;24.92;8.38;;;;;;;4.31;72.48;102960.72;5052064;28;20056;-54
2022/01/30 09:15:14;;;;;;;26.20;9.13;;;;;;;4.35;72.27;102970.22;5052170;28;20028;-54
2022/01/30 09:17:40;;;;;;;28.70;8.20;;;;;;;4.35;72.13;102972.97;5052367;28;20066;-53
2022/01/30 09:20:06;;;;;;;22.88;7.97;;;;;;;4.42;72.16;102980.34;5052360;28;20029;-51
2022/01/30 09:22:32;;;;;;;27.77;8.90;;;;;;;4.43;71.66;102991.09;5051009;28;20022;-51
2022/01/30 09:24:58;;;;;;;25.48;7.68;;;;;;;4.47;71.74;102988.78;5052445;28;20021;-51
2022/01/30 09:27:23;;;;;;;23.30;8.18;;;;;;;4.52;71.96;102987.09;5052210;28;20594;-52
2022/01/30 09:29:48;;;;;;;28.77;9.20;;;;;;;4.61;71.21;102986.88;5052437;28;20108;-51
2022/01/30 09:32:14;;;;;;;23.85;7.97;;;;;;;4.65;72.06;102990.84;5052130;28;20361;-53
2022/01/30 09:34:39;;;;;;;26.83;8.60;;;;;;;4.68;71.30;102982.19;5052307;28;20033;-54
2022/01/30 09:37:05;;;;;;;25.50;8.02;;;;;;;4.76;71.14;102981.16;5053071;28;20025;-52
2022/01/30 09:39:30;;;;;;;25.60;7.93;;;;;;;4.81;70.85;102987.69;5046884;28;20026;-52
2022/01/30 09:41:56;;;;;;;28.50;8.65;;;;;;;4.84;71.83;102992.72;5030640;28;20032;-54
2022/01/30 09:44:22;;;;;;;26.38;8.40;;;;;;;4.93;70.86;102987.00;5030068;28;20068;-52
2022/01/30 09:46:50;;;;;;;24.67;8.18;;;;;;;4.98;71.51;102989.94;5030377;28;20032;-53
2022/01/30 09:49:16;;;;;;;28.77;8.65;;;;;;;5.05;70.06;102995.41;5030269;28;20036;-53
2022/01/30 09:51:45;;;;;;;29.40;8.40;;;;;;;5.12;70.61;102999.81;5030479;28;20021;-54
2022/01/30 09:54:11;;;;;;;26.80;9.32;;;;;;;5.13;69.75;103006.97;5033061;28;20049;-52
2022/01/30 09:56:37;;;;;;;25.85;9.05;;;;;;;5.21;69.60;103005.91;5048375;28;20033;-53
2022/01/30 09:59:04;;;;;;;28.17;8.73;;;;;;;5.19;69.62;102998.97;5048617;28;20472;-54
2022/01/30 10:01:33;;;;;;;29.10;8.90;;;;;;;5.21;69.28;103010.53;5049281;28;20106;-54
2022/01/30 10:03:59;;;;;;;25.55;10.02;;;;;;;5.23;69.52;103009.28;5049569;28;20093;-53
2022/01/30 10:06:29;;;;;;;27.92;9.13;;;;;;;5.26;69.82;103003.34;5050045;28;20048;-51
2022/01/30 10:08:57;;;;;;;26.48;8.57;;;;;;;5.30;69.71;103022.97;5050610;28;20263;-53
2022/01/30 10:11:34;;;;;;;28.63;9.20;;;;;;;5.29;69.62;103018.56;5053492;28;20037;-52
2022/01/30 10:14:10;;;;;;;27.02;8.60;;;;;;;5.26;69.75;103018.97;5053585;28;20101;-52
2022/01/30 10:16:49;;;;;;;31.02;8.48;;;;;;;5.23;69.43;103028.50;5053702;28;20504;-53
2022/01/30 10:19:19;;;;;;;33.33;8.85;;;;;;;5.29;69.25;103033.09;5052078;28;20476;-53
2022/01/30 10:21:49;;;;;;;28.85;8.85;;;;;;;5.27;69.55;103028.91;5053458;28;20036;-53
2022/01/30 10:24:26;;;;;;;28.38;9.27;;;;;;;5.27;69.75;103046.19;5053344;28;20037;-52
2022/01/30 10:26:53;;;;;;;25.05;8.38;;;;;;;5.27;69.95;103031.66;5053325;28;20082;-53
2022/01/30 10:29:22;;;;;;;28.27;8.77;;;;;;;5.32;68.46;103037.31;5053576;28;20082;-53
2022/01/30 10:32:07;;;;;;;27.23;8.20;;;;;;;5.39;69.14;103021.66;5051959;28;20443;-54
2022/01/30 10:34:35;;;;;;;27.33;8.75;;;;;;;5.44;68.99;103035.59;5052974;28;20023;-51
2022/01/30 10:37:22;;;;;;;30.95;9.32;;;;;;;5.56;69.47;103023.94;5052614;28;20029;-53
2022/01/30 10:40:11;;;;;;;25.00;8.45;;;;;;;5.62;69.56;103026.63;5050903;28;20024;-52
2022/01/30 10:42:39;;;;;;;28.73;8.52;;;;;;;5.66;68.36;103029.78;5053067;28;20035;-53
2022/01/30 10:45:26;;;;;;;23.15;8.48;;;;;;;5.80;68.45;103026.97;5052615;28;20025;-52
2022/01/30 10:48:07;;;;;;;25.40;8.88;;;;;;;5.75;68.36;103023.00;5051227;28;20040;-54
2022/01/30 10:50:32;;;;;;;22.30;8.25;;;;;;;5.85;67.89;103035.41;5050230;28;20057;-51
2022/01/30 10:53:03;;;;;;;24.20;8.50;;;;;;;5.79;67.57;103023.38;5050987;28;20052;-53
2022/01/30 10:55:48;;;;;;;26.58;9.25;;;;;;;5.91;67.67;103027.09;5051976;28;20399;-52
2022/01/30 10:58:21;;;;;;;29.25;9.02;;;;;;;5.85;67.06;103021.66;5049083;28;20033;-51
2022/01/30 11:00:50;;;;;;;29.30;9.25;;;;;;;5.96;66.87;103023.69;5052295;28;20037;-52
2022/01/30 11:03:45;;;;;;;23.10;8.80;;;;;;;6.06;65.84;103024.06;5052107;28;20028;-51
2022/01/30 11:06:13;;;;;;;;;;;;;;;6.16;67.54;103011.75;5050346;28;20032;-53
2022/01/30 11:08:43;;;;;;;28.35;8.85;;;;;;;6.30;66.75;103009.72;5052317;28;19917;-52
2022/01/30 11:14:01;;;;;;;29.30;8.60;;;;;;;6.30;65.42;102999.59;5052558;28;20060;-52
2022/01/30 11:19:13;;;;;;;27.50;8.85;;;;;;;6.47;65.30;102990.78;5052532;28;20043;-53
2022/01/30 11:21:42;;;;;;;30.95;8.80;;;;;;;6.49;65.34;102994.97;5051745;28;20086;-54
2022/01/30 11:24:09;;;;;;;29.35;8.73;;;;;;;6.39;64.65;102991.88;5052163;28;20024;-54
2022/01/30 11:26:35;;;;;;;29.05;9.57;;;;;;;6.26;65.17;102997.53;5051791;28;20060;-53
2022/01/30 11:29:01;;;;;;;24.92;8.52;;;;;;;6.20;65.66;102991.00;5051777;28;20062;-53
2022/01/30 11:31:26;;;;;;;28.55;8.52;;;;;;;6.23;65.49;102980.41;5050892;28;20029;-52
2022/01/30 11:33:54;;;;;;;26.48;8.88;;;;;;;6.28;65.23;102987.97;5051793;28;20037;-51
2022/01/30 11:36:23;;;;;;;25.25;8.75;;;;;;;6.30;65.62;102987.75;5051905;28;20037;-51
2022/01/30 11:38:48;;;;;;;27.90;9.75;;;;;;;6.33;64.42;102999.13;5052044;28;20032;-52
2022/01/30 11:41:16;;;;;;;27.95;9.45;;;;;;;6.37;63.99;102977.56;5051514;28;20025;-50
2022/01/30 11:44:17;;;;;;;28.77;9.88;;;;;;;6.51;62.96;102981.03;5051852;28;20028;-53
2022/01/30 11:46:42;;;;;;;28.50;9.35;;;;;;;6.59;62.96;102986.22;5051605;28;20456;-54
2022/01/30 11:49:13;;;;;;;27.13;9.05;;;;;;;6.72;63.66;102966.81;5052040;28;20638;-53
2022/01/30 11:51:49;;;;;;;24.98;9.38;;;;;;;6.92;62.94;102974.00;5051627;28;20033;-52
2022/01/30 11:54:34;;;;;;;28.67;10.38;;;;;;;7.05;63.85;102966.69;5051337;28;20080;-51
2022/01/30 11:57:00;;;;;;;29.30;9.27;;;;;;;7.00;62.48;102965.44;5051644;28;20123;-52
2022/01/30 11:59:39;;;;;;;27.50;9.05;;;;;;;7.00;63.20;102976.47;5049783;28;20063;-52
2022/01/30 12:02:25;;;;;;;26.50;8.80;;;;;;;6.90;63.26;102972.56;5051317;28;20029;-53
2022/01/30 12:05:04;;;;;;;23.95;8.68;;;;;;;6.72;63.90;102986.06;5051348;28;20025;-52
2022/01/30 12:07:40;;;;;;;24.38;8.38;;;;;;;6.58;63.33;102958.94;5051382;28;20112;-54
2022/01/30 12:10:20;;;;;;;28.33;8.63;;;;;;;6.67;63.23;102976.81;5051331;28;20025;-53
2022/01/30 12:12:46;;;;;;;24.92;8.05;;;;;;;6.65;61.36;102976.22;5051094;28;20037;-52
2022/01/30 12:15:41;;;;;;;24.45;8.10;;;;;;;6.61;63.17;102966.72;5050399;28;20041;-52
2022/01/30 12:18:10;;;;;;;27.38;8.45;;;;;;;6.68;62.75;102967.50;5050034;28;20029;-53
2022/01/30 12:21:04;;;;;;;33.22;9.68;;;;;;;6.79;62.95;102965.94;5049938;28;20051;-53